sensor_id;sensor_type;location;lat;lon;timestamp;P1;durP1;ratioP1;P2;durP2;ratioP2
75698;SDS011;64313;51.018;13.742;2022-12-18T00:02:08;22.10;;;9.30;;
75698;SDS011;64313;51.018;13.742;2022-12-18T00:04:36;22.23;;;9.18;;
75698;SDS011;64313;51.018;13.742;2022-12-18T00:07:01;23.90;;;9.27;;
75698;SDS011;64313;51.018;13.742;2022-12-18T00:09:27;20.77;;;9.25;;
75698;SDS011;64313;51.018;13.742;2022-12-18T00:11:52;25.00;;;9.93;;
75698;SDS011;64313;51.018;13.742;2022-12-18T00:14:18;21.88;;;8.43;;
75698;SDS011;64313;51.018;13.742;2022-12-18T00:16:44;21.23;;;7.50;;
75698;SDS011;64313;51.018;13.742;2022-12-18T00:19:10;18.85;;;8.27;;
75698;SDS011;64313;51.018;13.742;2022-12-18T00:21:36;21.92;;;8.73;;
75698;SDS011;64313;51.018;13.742;2022-12-18T00:24:01;26.20;;;9.18;;
75698;SDS011;64313;51.018;13.742;2022-12-18T00:26:28;18.38;;;7.97;;
75698;SDS011;64313;51.018;13.742;2022-12-18T00:29:06;20.33;;;7.97;;
75698;SDS011;64313;51.018;13.742;2022-12-18T00:31:36;19.00;;;7.65;;
75698;SDS011;64313;51.018;13.742;2022-12-18T00:34:03;20.73;;;7.95;;
75698;SDS011;64313;51.018;13.742;2022-12-18T00:36:29;19.35;;;7.60;;
75698;SDS011;64313;51.018;13.742;2022-12-18T00:38:57;17.70;;;7.85;;
75698;SDS011;64313;51.018;13.742;2022-12-18T00:41:24;19.10;;;7.15;;
75698;SDS011;64313;51.018;13.742;2022-12-18T00:46:35;17.63;;;7.03;;
75698;SDS011;64313;51.018;13.742;2022-12-18T00:49:00;19.63;;;7.82;;
75698;SDS011;64313;51.018;13.742;2022-12-18T00:51:26;19.73;;;8.18;;
75698;SDS011;64313;51.018;13.742;2022-12-18T00:53:52;20.10;;;7.55;;
75698;SDS011;64313;51.018;13.742;2022-12-18T00:56:18;25.13;;;8.98;;
75698;SDS011;64313;51.018;13.742;2022-12-18T00:58:43;18.80;;;8.55;;
75698;SDS011;64313;51.018;13.742;2022-12-18T01:01:09;30.15;;;10.93;;
75698;SDS011;64313;51.018;13.742;2022-12-18T01:03:34;22.95;;;8.27;;
75698;SDS011;64313;51.018;13.742;2022-12-18T01:06:04;20.55;;;8.30;;
75698;SDS011;64313;51.018;13.742;2022-12-18T01:08:34;21.58;;;8.27;;
75698;SDS011;64313;51.018;13.742;2022-12-18T01:10:59;22.88;;;8.38;;
75698;SDS011;64313;51.018;13.742;2022-12-18T01:13:25;17.75;;;7.72;;
75698;SDS011;64313;51.018;13.742;2022-12-18T01:15:51;18.63;;;7.78;;
75698;SDS011;64313;51.018;13.742;2022-12-18T01:18:16;17.77;;;7.95;;
75698;SDS011;64313;51.018;13.742;2022-12-18T01:20:42;20.55;;;8.18;;
75698;SDS011;64313;51.018;13.742;2022-12-18T01:23:07;19.58;;;7.90;;
75698;SDS011;64313;51.018;13.742;2022-12-18T01:25:33;28.15;;;10.95;;
75698;SDS011;64313;51.018;13.742;2022-12-18T01:28:00;24.65;;;9.93;;
75698;SDS011;64313;51.018;13.742;2022-12-18T01:30:26;20.02;;;8.23;;
75698;SDS011;64313;51.018;13.742;2022-12-18T01:32:52;22.38;;;8.63;;
75698;SDS011;64313;51.018;13.742;2022-12-18T01:35:18;23.17;;;9.80;;
75698;SDS011;64313;51.018;13.742;2022-12-18T01:37:43;20.65;;;9.23;;
75698;SDS011;64313;51.018;13.742;2022-12-18T01:40:09;19.40;;;8.57;;
75698;SDS011;64313;51.018;13.742;2022-12-18T01:42:34;20.55;;;8.65;;
75698;SDS011;64313;51.018;13.742;2022-12-18T01:45:01;21.08;;;10.20;;
75698;SDS011;64313;51.018;13.742;2022-12-18T01:50:09;22.75;;;9.52;;
75698;SDS011;64313;51.018;13.742;2022-12-18T01:52:42;20.13;;;8.20;;
75698;SDS011;64313;51.018;13.742;2022-12-18T01:55:08;24.33;;;9.60;;
75698;SDS011;64313;51.018;13.742;2022-12-18T02:00:03;22.13;;;8.55;;
75698;SDS011;64313;51.018;13.742;2022-12-18T02:02:38;18.27;;;7.90;;
75698;SDS011;64313;51.018;13.742;2022-12-18T02:05:05;22.08;;;8.55;;
75698;SDS011;64313;51.018;13.742;2022-12-18T02:07:39;20.88;;;9.52;;
75698;SDS011;64313;51.018;13.742;2022-12-18T02:10:31;20.48;;;8.23;;
75698;SDS011;64313;51.018;13.742;2022-12-18T02:18:23;19.33;;;8.43;;
75698;SDS011;64313;51.018;13.742;2022-12-18T02:21:02;18.90;;;8.02;;
75698;SDS011;64313;51.018;13.742;2022-12-18T02:28:56;17.98;;;6.97;;
75698;SDS011;64313;51.018;13.742;2022-12-18T02:31:30;17.25;;;7.10;;
75698;SDS011;64313;51.018;13.742;2022-12-18T02:34:01;18.65;;;7.57;;
75698;SDS011;64313;51.018;13.742;2022-12-18T02:36:34;17.63;;;6.70;;
75698;SDS011;64313;51.018;13.742;2022-12-18T02:39:03;17.60;;;7.40;;
75698;SDS011;64313;51.018;13.742;2022-12-18T02:41:32;18.17;;;7.43;;
75698;SDS011;64313;51.018;13.742;2022-12-18T02:43:58;18.05;;;7.60;;
75698;SDS011;64313;51.018;13.742;2022-12-18T02:46:30;17.50;;;7.03;;
75698;SDS011;64313;51.018;13.742;2022-12-18T02:51:49;15.90;;;6.75;;
75698;SDS011;64313;51.018;13.742;2022-12-18T02:56:55;20.45;;;7.22;;
75698;SDS011;64313;51.018;13.742;2022-12-18T02:59:30;18.83;;;6.85;;
75698;SDS011;64313;51.018;13.742;2022-12-18T03:02:26;14.73;;;5.95;;
75698;SDS011;64313;51.018;13.742;2022-12-18T03:05:10;17.63;;;6.65;;
75698;SDS011;64313;51.018;13.742;2022-12-18T03:07:49;16.80;;;6.18;;
75698;SDS011;64313;51.018;13.742;2022-12-18T03:10:25;15.45;;;6.40;;
75698;SDS011;64313;51.018;13.742;2022-12-18T03:12:55;16.33;;;6.15;;
75698;SDS011;64313;51.018;13.742;2022-12-18T03:15:31;19.80;;;6.68;;
75698;SDS011;64313;51.018;13.742;2022-12-18T03:18:12;15.65;;;6.53;;
75698;SDS011;64313;51.018;13.742;2022-12-18T03:20:42;15.52;;;6.53;;
75698;SDS011;64313;51.018;13.742;2022-12-18T03:23:14;15.50;;;5.93;;
75698;SDS011;64313;51.018;13.742;2022-12-18T03:25:46;16.40;;;6.43;;
75698;SDS011;64313;51.018;13.742;2022-12-18T03:28:15;14.55;;;5.70;;
75698;SDS011;64313;51.018;13.742;2022-12-18T03:30:46;13.73;;;6.38;;
75698;SDS011;64313;51.018;13.742;2022-12-18T03:34:17;13.85;;;5.72;;
75698;SDS011;64313;51.018;13.742;2022-12-18T03:36:18;13.98;;;5.45;;
75698;SDS011;64313;51.018;13.742;2022-12-18T03:38:43;13.70;;;5.35;;
75698;SDS011;64313;51.018;13.742;2022-12-18T03:44:27;11.02;;;5.05;;
75698;SDS011;64313;51.018;13.742;2022-12-18T03:49:35;13.00;;;5.55;;
75698;SDS011;64313;51.018;13.742;2022-12-18T03:54:45;16.00;;;5.95;;
75698;SDS011;64313;51.018;13.742;2022-12-18T03:57:19;15.75;;;5.57;;
75698;SDS011;64313;51.018;13.742;2022-12-18T03:59:54;14.18;;;5.82;;
75698;SDS011;64313;51.018;13.742;2022-12-18T04:02:28;15.52;;;5.55;;
75698;SDS011;64313;51.018;13.742;2022-12-18T04:04:58;13.80;;;5.90;;
75698;SDS011;64313;51.018;13.742;2022-12-18T04:07:26;12.40;;;5.47;;
75698;SDS011;64313;51.018;13.742;2022-12-18T04:09:55;13.95;;;5.05;;
75698;SDS011;64313;51.018;13.742;2022-12-18T04:12:24;11.48;;;5.18;;
75698;SDS011;64313;51.018;13.742;2022-12-18T04:14:51;13.75;;;4.75;;
75698;SDS011;64313;51.018;13.742;2022-12-18T04:17:17;13.57;;;5.15;;
75698;SDS011;64313;51.018;13.742;2022-12-18T04:19:42;14.05;;;5.45;;
75698;SDS011;64313;51.018;13.742;2022-12-18T04:22:09;13.63;;;5.18;;
75698;SDS011;64313;51.018;13.742;2022-12-18T04:24:40;11.45;;;4.38;;
75698;SDS011;64313;51.018;13.742;2022-12-18T04:27:17;11.10;;;4.30;;
75698;SDS011;64313;51.018;13.742;2022-12-18T04:29:47;12.32;;;4.82;;
75698;SDS011;64313;51.018;13.742;2022-12-18T04:32:13;12.75;;;4.63;;
75698;SDS011;64313;51.018;13.742;2022-12-18T04:34:41;12.60;;;4.68;;
75698;SDS011;64313;51.018;13.742;2022-12-18T04:37:07;11.15;;;4.28;;
75698;SDS011;64313;51.018;13.742;2022-12-18T04:39:33;9.27;;;3.83;;
75698;SDS011;64313;51.018;13.742;2022-12-18T04:42:04;11.18;;;4.65;;
75698;SDS011;64313;51.018;13.742;2022-12-18T04:44:29;11.60;;;4.30;;
75698;SDS011;64313;51.018;13.742;2022-12-18T04:46:55;11.57;;;4.20;;
75698;SDS011;64313;51.018;13.742;2022-12-18T04:49:20;12.02;;;4.32;;
75698;SDS011;64313;51.018;13.742;2022-12-18T04:51:46;9.63;;;4.05;;
75698;SDS011;64313;51.018;13.742;2022-12-18T04:54:11;13.63;;;4.63;;
75698;SDS011;64313;51.018;13.742;2022-12-18T04:56:37;12.70;;;4.88;;
75698;SDS011;64313;51.018;13.742;2022-12-18T04:59:02;11.65;;;4.35;;
75698;SDS011;64313;51.018;13.742;2022-12-18T05:01:27;10.77;;;3.83;;
75698;SDS011;64313;51.018;13.742;2022-12-18T05:03:53;10.05;;;4.22;;
75698;SDS011;64313;51.018;13.742;2022-12-18T05:06:18;11.77;;;4.50;;
75698;SDS011;64313;51.018;13.742;2022-12-18T05:08:43;12.55;;;4.55;;
75698;SDS011;64313;51.018;13.742;2022-12-18T05:11:10;12.48;;;4.60;;
75698;SDS011;64313;51.018;13.742;2022-12-18T05:13:37;9.05;;;3.80;;
75698;SDS011;64313;51.018;13.742;2022-12-18T05:16:03;9.63;;;3.78;;
75698;SDS011;64313;51.018;13.742;2022-12-18T05:18:29;12.52;;;4.43;;
75698;SDS011;64313;51.018;13.742;2022-12-18T05:20:55;12.73;;;3.90;;
75698;SDS011;64313;51.018;13.742;2022-12-18T05:23:20;11.10;;;3.92;;
75698;SDS011;64313;51.018;13.742;2022-12-18T05:25:51;10.43;;;4.28;;
75698;SDS011;64313;51.018;13.742;2022-12-18T05:28:18;11.88;;;3.88;;
75698;SDS011;64313;51.018;13.742;2022-12-18T05:30:47;9.73;;;3.78;;
75698;SDS011;64313;51.018;13.742;2022-12-18T05:33:14;9.95;;;3.67;;
75698;SDS011;64313;51.018;13.742;2022-12-18T05:35:39;10.15;;;3.80;;
75698;SDS011;64313;51.018;13.742;2022-12-18T05:38:05;9.90;;;3.53;;
75698;SDS011;64313;51.018;13.742;2022-12-18T05:40:30;10.30;;;3.90;;
75698;SDS011;64313;51.018;13.742;2022-12-18T05:42:55;9.48;;;3.65;;
75698;SDS011;64313;51.018;13.742;2022-12-18T05:45:21;10.00;;;3.60;;
75698;SDS011;64313;51.018;13.742;2022-12-18T05:47:46;10.43;;;3.70;;
75698;SDS011;64313;51.018;13.742;2022-12-18T05:50:11;8.85;;;2.95;;
75698;SDS011;64313;51.018;13.742;2022-12-18T05:52:37;10.38;;;3.90;;
75698;SDS011;64313;51.018;13.742;2022-12-18T05:55:02;9.88;;;3.55;;
75698;SDS011;64313;51.018;13.742;2022-12-18T05:57:28;9.60;;;3.38;;
75698;SDS011;64313;51.018;13.742;2022-12-18T05:59:53;12.40;;;3.80;;
75698;SDS011;64313;51.018;13.742;2022-12-18T06:02:18;10.10;;;4.07;;
75698;SDS011;64313;51.018;13.742;2022-12-18T06:04:45;11.15;;;4.32;;
75698;SDS011;64313;51.018;13.742;2022-12-18T06:07:11;10.07;;;3.90;;
75698;SDS011;64313;51.018;13.742;2022-12-18T06:09:36;11.43;;;4.10;;
75698;SDS011;64313;51.018;13.742;2022-12-18T06:12:01;10.20;;;4.32;;
75698;SDS011;64313;51.018;13.742;2022-12-18T06:14:27;12.10;;;4.43;;
75698;SDS011;64313;51.018;13.742;2022-12-18T06:16:52;12.05;;;4.38;;
75698;SDS011;64313;51.018;13.742;2022-12-18T06:19:18;11.30;;;4.40;;
75698;SDS011;64313;51.018;13.742;2022-12-18T06:21:43;12.20;;;4.07;;
75698;SDS011;64313;51.018;13.742;2022-12-18T06:24:08;11.18;;;4.55;;
75698;SDS011;64313;51.018;13.742;2022-12-18T06:26:34;12.13;;;4.30;;
75698;SDS011;64313;51.018;13.742;2022-12-18T06:29:02;11.55;;;4.30;;
75698;SDS011;64313;51.018;13.742;2022-12-18T06:31:28;12.27;;;4.15;;
75698;SDS011;64313;51.018;13.742;2022-12-18T06:33:53;11.52;;;3.95;;
75698;SDS011;64313;51.018;13.742;2022-12-18T06:36:18;11.85;;;4.80;;
75698;SDS011;64313;51.018;13.742;2022-12-18T06:38:44;11.57;;;4.70;;
75698;SDS011;64313;51.018;13.742;2022-12-18T06:41:14;11.60;;;4.25;;
75698;SDS011;64313;51.018;13.742;2022-12-18T06:43:41;13.93;;;5.00;;
75698;SDS011;64313;51.018;13.742;2022-12-18T06:49:53;12.80;;;4.25;;
75698;SDS011;64313;51.018;13.742;2022-12-18T06:52:19;10.10;;;3.85;;
75698;SDS011;64313;51.018;13.742;2022-12-18T06:54:44;11.27;;;4.45;;
75698;SDS011;64313;51.018;13.742;2022-12-18T06:57:10;11.90;;;4.65;;
75698;SDS011;64313;51.018;13.742;2022-12-18T06:59:35;11.68;;;4.18;;
75698;SDS011;64313;51.018;13.742;2022-12-18T07:02:00;10.73;;;4.38;;
75698;SDS011;64313;51.018;13.742;2022-12-18T07:04:29;13.20;;;4.60;;
75698;SDS011;64313;51.018;13.742;2022-12-18T07:06:55;11.30;;;4.60;;
75698;SDS011;64313;51.018;13.742;2022-12-18T07:09:20;12.90;;;5.00;;
75698;SDS011;64313;51.018;13.742;2022-12-18T07:11:45;12.13;;;5.40;;
75698;SDS011;64313;51.018;13.742;2022-12-18T07:14:11;11.63;;;4.80;;
75698;SDS011;64313;51.018;13.742;2022-12-18T07:16:36;12.95;;;5.15;;
75698;SDS011;64313;51.018;13.742;2022-12-18T07:19:01;13.70;;;5.10;;
75698;SDS011;64313;51.018;13.742;2022-12-18T07:21:26;12.77;;;4.80;;
75698;SDS011;64313;51.018;13.742;2022-12-18T07:23:52;11.45;;;4.45;;
75698;SDS011;64313;51.018;13.742;2022-12-18T07:26:18;12.73;;;4.70;;
75698;SDS011;64313;51.018;13.742;2022-12-18T07:28:45;14.35;;;5.13;;
75698;SDS011;64313;51.018;13.742;2022-12-18T07:31:12;10.13;;;4.28;;
75698;SDS011;64313;51.018;13.742;2022-12-18T07:33:40;13.10;;;4.90;;
75698;SDS011;64313;51.018;13.742;2022-12-18T07:36:06;11.30;;;4.32;;
75698;SDS011;64313;51.018;13.742;2022-12-18T07:38:32;11.32;;;4.50;;
75698;SDS011;64313;51.018;13.742;2022-12-18T07:41:03;13.70;;;5.18;;
75698;SDS011;64313;51.018;13.742;2022-12-18T07:43:31;10.90;;;4.35;;
75698;SDS011;64313;51.018;13.742;2022-12-18T07:45:56;10.40;;;3.95;;
75698;SDS011;64313;51.018;13.742;2022-12-18T07:48:22;13.55;;;4.80;;
75698;SDS011;64313;51.018;13.742;2022-12-18T07:50:47;13.50;;;4.45;;
75698;SDS011;64313;51.018;13.742;2022-12-18T07:53:13;11.88;;;4.85;;
75698;SDS011;64313;51.018;13.742;2022-12-18T07:55:39;12.38;;;5.45;;
75698;SDS011;64313;51.018;13.742;2022-12-18T07:58:06;12.02;;;4.38;;
75698;SDS011;64313;51.018;13.742;2022-12-18T08:00:31;13.32;;;5.05;;
75698;SDS011;64313;51.018;13.742;2022-12-18T08:02:57;11.77;;;4.22;;
75698;SDS011;64313;51.018;13.742;2022-12-18T08:05:22;12.13;;;4.80;;
75698;SDS011;64313;51.018;13.742;2022-12-18T08:07:49;15.73;;;5.95;;
75698;SDS011;64313;51.018;13.742;2022-12-18T08:10:14;14.18;;;5.47;;
75698;SDS011;64313;51.018;13.742;2022-12-18T08:12:40;13.73;;;5.47;;
75698;SDS011;64313;51.018;13.742;2022-12-18T08:15:05;13.30;;;5.50;;
75698;SDS011;64313;51.018;13.742;2022-12-18T08:17:31;16.17;;;5.90;;
75698;SDS011;64313;51.018;13.742;2022-12-18T08:19:57;14.80;;;5.82;;
75698;SDS011;64313;51.018;13.742;2022-12-18T08:22:22;14.75;;;6.32;;
75698;SDS011;64313;51.018;13.742;2022-12-18T08:24:48;17.08;;;6.93;;
75698;SDS011;64313;51.018;13.742;2022-12-18T08:27:13;18.67;;;6.97;;
75698;SDS011;64313;51.018;13.742;2022-12-18T08:29:38;17.92;;;6.72;;
75698;SDS011;64313;51.018;13.742;2022-12-18T08:32:04;18.80;;;7.10;;
75698;SDS011;64313;51.018;13.742;2022-12-18T08:34:29;21.40;;;7.93;;
75698;SDS011;64313;51.018;13.742;2022-12-18T08:36:55;17.75;;;7.03;;
75698;SDS011;64313;51.018;13.742;2022-12-18T08:39:20;22.42;;;8.30;;
75698;SDS011;64313;51.018;13.742;2022-12-18T08:41:46;22.45;;;8.23;;
75698;SDS011;64313;51.018;13.742;2022-12-18T08:44:31;21.25;;;7.80;;
75698;SDS011;64313;51.018;13.742;2022-12-18T08:47:03;20.65;;;7.47;;
75698;SDS011;64313;51.018;13.742;2022-12-18T08:49:30;21.33;;;7.35;;
75698;SDS011;64313;51.018;13.742;2022-12-18T08:51:55;19.15;;;7.47;;
75698;SDS011;64313;51.018;13.742;2022-12-18T08:54:22;18.67;;;7.50;;
75698;SDS011;64313;51.018;13.742;2022-12-18T08:56:47;18.90;;;7.55;;
75698;SDS011;64313;51.018;13.742;2022-12-18T08:59:14;19.63;;;8.10;;
75698;SDS011;64313;51.018;13.742;2022-12-18T09:01:40;20.73;;;7.85;;
75698;SDS011;64313;51.018;13.742;2022-12-18T09:04:05;20.13;;;7.68;;
75698;SDS011;64313;51.018;13.742;2022-12-18T09:06:31;19.38;;;7.85;;
75698;SDS011;64313;51.018;13.742;2022-12-18T09:08:56;22.52;;;8.60;;
75698;SDS011;64313;51.018;13.742;2022-12-18T09:11:25;21.95;;;7.65;;
75698;SDS011;64313;51.018;13.742;2022-12-18T09:13:53;19.20;;;7.85;;
75698;SDS011;64313;51.018;13.742;2022-12-18T09:16:19;21.45;;;7.35;;
75698;SDS011;64313;51.018;13.742;2022-12-18T09:18:45;19.50;;;7.80;;
75698;SDS011;64313;51.018;13.742;2022-12-18T09:21:12;19.15;;;7.63;;
75698;SDS011;64313;51.018;13.742;2022-12-18T09:23:39;21.17;;;7.65;;
75698;SDS011;64313;51.018;13.742;2022-12-18T09:26:04;23.33;;;7.47;;
75698;SDS011;64313;51.018;13.742;2022-12-18T09:28:30;18.40;;;8.02;;
75698;SDS011;64313;51.018;13.742;2022-12-18T09:30:56;18.75;;;7.25;;
75698;SDS011;64313;51.018;13.742;2022-12-18T09:33:21;17.88;;;7.57;;
75698;SDS011;64313;51.018;13.742;2022-12-18T09:35:46;20.67;;;7.65;;
75698;SDS011;64313;51.018;13.742;2022-12-18T09:38:16;19.90;;;7.32;;
75698;SDS011;64313;51.018;13.742;2022-12-18T09:40:49;21.35;;;7.82;;
75698;SDS011;64313;51.018;13.742;2022-12-18T09:43:20;19.80;;;7.22;;
75698;SDS011;64313;51.018;13.742;2022-12-18T09:45:53;19.77;;;7.82;;
75698;SDS011;64313;51.018;13.742;2022-12-18T09:48:25;22.20;;;7.90;;
75698;SDS011;64313;51.018;13.742;2022-12-18T09:50:54;22.00;;;8.75;;
75698;SDS011;64313;51.018;13.742;2022-12-18T09:53:25;23.65;;;7.85;;
75698;SDS011;64313;51.018;13.742;2022-12-18T09:55:53;23.15;;;8.95;;
75698;SDS011;64313;51.018;13.742;2022-12-18T09:58:31;17.83;;;7.68;;
75698;SDS011;64313;51.018;13.742;2022-12-18T10:01:11;24.77;;;9.02;;
75698;SDS011;64313;51.018;13.742;2022-12-18T10:03:39;24.63;;;9.10;;
75698;SDS011;64313;51.018;13.742;2022-12-18T10:06:12;24.48;;;9.23;;
75698;SDS011;64313;51.018;13.742;2022-12-18T10:14:22;24.38;;;9.13;;
75698;SDS011;64313;51.018;13.742;2022-12-18T10:24:55;24.75;;;9.57;;
75698;SDS011;64313;51.018;13.742;2022-12-18T10:27:29;24.38;;;10.13;;
75698;SDS011;64313;51.018;13.742;2022-12-18T10:29:56;23.25;;;9.35;;
75698;SDS011;64313;51.018;13.742;2022-12-18T10:32:23;25.52;;;10.77;;
75698;SDS011;64313;51.018;13.742;2022-12-18T10:34:51;27.98;;;9.60;;
75698;SDS011;64313;51.018;13.742;2022-12-18T10:37:19;24.77;;;9.65;;
75698;SDS011;64313;51.018;13.742;2022-12-18T10:39:46;26.95;;;9.93;;
75698;SDS011;64313;51.018;13.742;2022-12-18T10:42:32;25.25;;;10.02;;
75698;SDS011;64313;51.018;13.742;2022-12-18T10:45:03;25.25;;;10.13;;
75698;SDS011;64313;51.018;13.742;2022-12-18T10:47:35;26.17;;;10.15;;
75698;SDS011;64313;51.018;13.742;2022-12-18T10:50:01;24.70;;;9.95;;
75698;SDS011;64313;51.018;13.742;2022-12-18T10:52:27;27.45;;;10.38;;
75698;SDS011;64313;51.018;13.742;2022-12-18T10:54:53;23.35;;;9.32;;
75698;SDS011;64313;51.018;13.742;2022-12-18T11:00:35;25.00;;;10.07;;
75698;SDS011;64313;51.018;13.742;2022-12-18T11:02:55;28.45;;;10.05;;
75698;SDS011;64313;51.018;13.742;2022-12-18T11:07:54;27.35;;;10.88;;
75698;SDS011;64313;51.018;13.742;2022-12-18T11:10:21;29.75;;;10.82;;
75698;SDS011;64313;51.018;13.742;2022-12-18T11:12:50;27.17;;;9.98;;
75698;SDS011;64313;51.018;13.742;2022-12-18T11:15:20;26.25;;;10.40;;
75698;SDS011;64313;51.018;13.742;2022-12-18T11:17:50;26.65;;;9.93;;
75698;SDS011;64313;51.018;13.742;2022-12-18T11:20:30;29.60;;;11.60;;
75698;SDS011;64313;51.018;13.742;2022-12-18T11:23:05;25.50;;;9.63;;
75698;SDS011;64313;51.018;13.742;2022-12-18T11:25:38;31.23;;;11.00;;
75698;SDS011;64313;51.018;13.742;2022-12-18T11:28:05;29.40;;;10.85;;
75698;SDS011;64313;51.018;13.742;2022-12-18T11:30:49;25.92;;;9.35;;
75698;SDS011;64313;51.018;13.742;2022-12-18T11:33:54;29.00;;;10.30;;
75698;SDS011;64313;51.018;13.742;2022-12-18T11:36:25;25.45;;;9.73;;
75698;SDS011;64313;51.018;13.742;2022-12-18T11:38:56;28.30;;;9.95;;
75698;SDS011;64313;51.018;13.742;2022-12-18T11:41:32;28.67;;;9.45;;
75698;SDS011;64313;51.018;13.742;2022-12-18T11:44:24;26.60;;;8.90;;
75698;SDS011;64313;51.018;13.742;2022-12-18T11:46:55;25.67;;;9.63;;
75698;SDS011;64313;51.018;13.742;2022-12-18T11:49:27;25.58;;;9.57;;
75698;SDS011;64313;51.018;13.742;2022-12-18T11:52:14;30.17;;;9.57;;
75698;SDS011;64313;51.018;13.742;2022-12-18T11:54:44;30.15;;;10.50;;
75698;SDS011;64313;51.018;13.742;2022-12-18T11:57:19;30.63;;;11.13;;
75698;SDS011;64313;51.018;13.742;2022-12-18T12:05:50;26.98;;;9.25;;
75698;SDS011;64313;51.018;13.742;2022-12-18T12:11:50;24.38;;;8.77;;
75698;SDS011;64313;51.018;13.742;2022-12-18T12:18:05;24.83;;;9.27;;
75698;SDS011;64313;51.018;13.742;2022-12-18T12:26:02;25.10;;;9.25;;
75698;SDS011;64313;51.018;13.742;2022-12-18T12:28:49;22.25;;;9.18;;
75698;SDS011;64313;51.018;13.742;2022-12-18T12:31:29;24.45;;;9.23;;
75698;SDS011;64313;51.018;13.742;2022-12-18T12:34:29;25.80;;;10.50;;
75698;SDS011;64313;51.018;13.742;2022-12-18T12:40:01;26.05;;;9.07;;
75698;SDS011;64313;51.018;13.742;2022-12-18T12:48:43;22.83;;;8.82;;
75698;SDS011;64313;51.018;13.742;2022-12-18T12:51:19;25.40;;;9.60;;
75698;SDS011;64313;51.018;13.742;2022-12-18T12:53:49;24.20;;;9.55;;
75698;SDS011;64313;51.018;13.742;2022-12-18T12:56:16;23.55;;;9.52;;
75698;SDS011;64313;51.018;13.742;2022-12-18T12:58:46;25.58;;;9.48;;
75698;SDS011;64313;51.018;13.742;2022-12-18T13:01:17;25.73;;;9.60;;
75698;SDS011;64313;51.018;13.742;2022-12-18T13:09:07;23.40;;;9.00;;
75698;SDS011;64313;51.018;13.742;2022-12-18T13:11:42;23.98;;;9.18;;
75698;SDS011;64313;51.018;13.742;2022-12-18T13:14:35;24.98;;;9.18;;
75698;SDS011;64313;51.018;13.742;2022-12-18T13:20:02;24.45;;;9.95;;
75698;SDS011;64313;51.018;13.742;2022-12-18T13:24:58;26.83;;;9.15;;
75698;SDS011;64313;51.018;13.742;2022-12-18T13:30:36;22.92;;;9.30;;
75698;SDS011;64313;51.018;13.742;2022-12-18T13:35:39;24.05;;;8.82;;
75698;SDS011;64313;51.018;13.742;2022-12-18T13:40:58;22.88;;;8.75;;
75698;SDS011;64313;51.018;13.742;2022-12-18T13:43:36;27.17;;;9.43;;
75698;SDS011;64313;51.018;13.742;2022-12-18T13:46:21;24.23;;;9.13;;
75698;SDS011;64313;51.018;13.742;2022-12-18T13:49:01;24.80;;;9.52;;
75698;SDS011;64313;51.018;13.742;2022-12-18T13:51:43;25.55;;;10.13;;
75698;SDS011;64313;51.018;13.742;2022-12-18T13:56:55;26.50;;;9.30;;
75698;SDS011;64313;51.018;13.742;2022-12-18T13:59:22;22.20;;;8.90;;
75698;SDS011;64313;51.018;13.742;2022-12-18T14:01:49;25.33;;;9.77;;
75698;SDS011;64313;51.018;13.742;2022-12-18T14:04:23;23.38;;;9.38;;
75698;SDS011;64313;51.018;13.742;2022-12-18T14:06:49;21.25;;;8.90;;
75698;SDS011;64313;51.018;13.742;2022-12-18T14:09:18;24.17;;;8.35;;
75698;SDS011;64313;51.018;13.742;2022-12-18T14:11:50;22.63;;;9.30;;
75698;SDS011;64313;51.018;13.742;2022-12-18T14:14:17;23.65;;;8.98;;
75698;SDS011;64313;51.018;13.742;2022-12-18T14:16:44;20.52;;;8.38;;
75698;SDS011;64313;51.018;13.742;2022-12-18T14:19:14;23.50;;;9.70;;
75698;SDS011;64313;51.018;13.742;2022-12-18T14:21:46;22.13;;;8.57;;
75698;SDS011;64313;51.018;13.742;2022-12-18T14:24:14;18.98;;;8.27;;
75698;SDS011;64313;51.018;13.742;2022-12-18T14:26:41;24.75;;;9.05;;
75698;SDS011;64313;51.018;13.742;2022-12-18T14:31:44;21.23;;;8.07;;
75698;SDS011;64313;51.018;13.742;2022-12-18T14:34:16;23.00;;;8.50;;
75698;SDS011;64313;51.018;13.742;2022-12-18T14:36:44;18.50;;;7.47;;
75698;SDS011;64313;51.018;13.742;2022-12-18T14:39:17;22.85;;;8.02;;
75698;SDS011;64313;51.018;13.742;2022-12-18T14:41:43;18.75;;;8.02;;
75698;SDS011;64313;51.018;13.742;2022-12-18T14:44:11;20.90;;;8.10;;
75698;SDS011;64313;51.018;13.742;2022-12-18T14:46:38;18.35;;;7.53;;
75698;SDS011;64313;51.018;13.742;2022-12-18T14:49:14;20.50;;;7.72;;
75698;SDS011;64313;51.018;13.742;2022-12-18T14:51:48;20.10;;;7.50;;
75698;SDS011;64313;51.018;13.742;2022-12-18T14:54:17;22.70;;;7.97;;
75698;SDS011;64313;51.018;13.742;2022-12-18T14:57:02;18.65;;;7.40;;
75698;SDS011;64313;51.018;13.742;2022-12-18T14:59:30;19.02;;;8.05;;
75698;SDS011;64313;51.018;13.742;2022-12-18T15:04:32;21.23;;;7.78;;
75698;SDS011;64313;51.018;13.742;2022-12-18T15:09:38;19.42;;;7.45;;
75698;SDS011;64313;51.018;13.742;2022-12-18T15:12:15;22.30;;;8.40;;
75698;SDS011;64313;51.018;13.742;2022-12-18T15:14:49;20.77;;;7.40;;
75698;SDS011;64313;51.018;13.742;2022-12-18T15:17:21;19.35;;;8.23;;
75698;SDS011;64313;51.018;13.742;2022-12-18T15:19:49;22.13;;;8.60;;
75698;SDS011;64313;51.018;13.742;2022-12-18T15:22:20;23.20;;;8.40;;
75698;SDS011;64313;51.018;13.742;2022-12-18T15:24:49;21.08;;;8.23;;
75698;SDS011;64313;51.018;13.742;2022-12-18T15:27:20;22.52;;;8.43;;
75698;SDS011;64313;51.018;13.742;2022-12-18T15:29:58;23.05;;;8.95;;
75698;SDS011;64313;51.018;13.742;2022-12-18T15:32:33;25.30;;;8.32;;
75698;SDS011;64313;51.018;13.742;2022-12-18T15:35:11;24.05;;;8.75;;
75698;SDS011;64313;51.018;13.742;2022-12-18T15:37:39;20.13;;;7.82;;
75698;SDS011;64313;51.018;13.742;2022-12-18T15:40:05;23.83;;;8.30;;
75698;SDS011;64313;51.018;13.742;2022-12-18T15:42:32;22.08;;;9.02;;
75698;SDS011;64313;51.018;13.742;2022-12-18T15:45:16;20.05;;;7.40;;
75698;SDS011;64313;51.018;13.742;2022-12-18T15:47:41;21.27;;;7.68;;
75698;SDS011;64313;51.018;13.742;2022-12-18T15:50:07;21.30;;;7.95;;
75698;SDS011;64313;51.018;13.742;2022-12-18T15:52:36;22.40;;;8.40;;
75698;SDS011;64313;51.018;13.742;2022-12-18T15:55:10;21.38;;;8.13;;
75698;SDS011;64313;51.018;13.742;2022-12-18T15:57:56;22.45;;;8.73;;
75698;SDS011;64313;51.018;13.742;2022-12-18T16:00:21;23.67;;;8.63;;
75698;SDS011;64313;51.018;13.742;2022-12-18T16:02:47;22.15;;;8.82;;
75698;SDS011;64313;51.018;13.742;2022-12-18T16:05:16;19.88;;;7.88;;
75698;SDS011;64313;51.018;13.742;2022-12-18T16:07:43;19.67;;;8.23;;
75698;SDS011;64313;51.018;13.742;2022-12-18T16:10:09;24.17;;;9.20;;
75698;SDS011;64313;51.018;13.742;2022-12-18T16:12:35;23.77;;;8.68;;
75698;SDS011;64313;51.018;13.742;2022-12-18T16:15:00;20.48;;;8.35;;
75698;SDS011;64313;51.018;13.742;2022-12-18T16:17:26;17.95;;;7.60;;
75698;SDS011;64313;51.018;13.742;2022-12-18T16:19:52;25.75;;;8.70;;
75698;SDS011;64313;51.018;13.742;2022-12-18T16:22:19;21.80;;;8.02;;
75698;SDS011;64313;51.018;13.742;2022-12-18T16:24:50;25.20;;;9.32;;
75698;SDS011;64313;51.018;13.742;2022-12-18T16:27:16;22.38;;;8.30;;